Time;durP1;ratioP1;P1;durP2;ratioP2;P2;SDS_P1;SDS_P2;PMS_P1;PMS_P2;Temp;Humidity;BMP_temperature;BMP_pressure;BME280_temperature;BME280_humidity;BME280_pressure;Samples;Min_cycle;Max_cycle;Signal;HPM_P1;HPM_P2
2021/06/09 00:01:09;;;;;;;20.73;18.50;;;15.30;99.90;;;;;;4181929;28;20113;-77
2021/06/09 00:03:09;;;;;;;21.17;18.98;;;15.20;99.90;;;;;;4181989;28;20083;-78
2021/06/09 00:05:11;;;;;;;21.60;19.52;;;15.20;99.90;;;;;;4181557;28;20029;-77
2021/06/09 00:07:11;;;;;;;23.95;20.33;;;15.20;99.90;;;;;;4180152;28;20033;-77
2021/06/09 00:09:12;;;;;;;20.60;18.35;;;15.10;99.90;;;;;;4180229;28;20496;-77
2021/06/09 00:11:13;;;;;;;23.33;20.10;;;15.10;99.90;;;;;;4189614;28;20028;-77
2021/06/09 00:13:15;;;;;;;22.60;19.17;;;15.10;99.90;;;;;;4181429;28;20099;-77
2021/06/09 00:15:17;;;;;;;22.30;19.90;;;15.00;99.90;;;;;;4180298;28;20032;-78
2021/06/09 00:17:17;;;;;;;22.77;20.30;;;15.00;99.90;;;;;;4181656;28;20017;-77
2021/06/09 00:19:18;;;;;;;23.25;20.67;;;14.90;99.90;;;;;;4181577;28;20132;-77
2021/06/09 00:21:19;;;;;;;21.50;19.05;;;14.90;99.90;;;;;;4181496;28;20039;-77
2021/06/09 00:23:25;;;;;;;22.73;20.35;;;14.90;99.90;;;;;;4181492;28;20033;-78
2021/06/09 00:25:26;;;;;;;23.05;20.42;;;14.90;99.90;;;;;;4181493;28;20032;-77
2021/06/09 00:27:27;;;;;;;22.08;19.70;;;14.80;99.90;;;;;;4181400;28;20135;-77
2021/06/09 00:29:28;;;;;;;22.35;19.63;;;14.80;99.90;;;;;;4181819;28;20036;-77
2021/06/09 00:31:29;;;;;;;25.52;21.63;;;14.80;99.90;;;;;;4180119;28;20045;-77
2021/06/09 00:33:31;;;;;;;22.88;20.48;;;14.80;99.90;;;;;;4179306;28;20087;-77
2021/06/09 00:35:32;;;;;;;25.83;21.55;;;14.80;99.90;;;;;;4179783;28;20048;-77
2021/06/09 00:37:33;;;;;;;24.65;21.17;;;14.80;99.90;;;;;;4195531;28;20029;-76
2021/06/09 00:39:34;;;;;;;23.38;20.23;;;14.80;99.90;;;;;;4179686;28;20403;-77
2021/06/09 00:41:36;;;;;;;20.60;18.50;;;14.80;99.90;;;;;;4179572;28;20124;-77
2021/06/09 00:43:37;;;;;;;25.83;21.15;;;14.80;99.90;;;;;;4179698;28;20029;-77
2021/06/09 00:45:41;;;;;;;23.55;21.00;;;14.80;99.90;;;;;;4182798;28;20029;-77
2021/06/09 00:47:41;;;;;;;24.02;20.73;;;14.70;99.90;;;;;;4180220;28;20060;-77
2021/06/09 00:49:42;;;;;;;24.92;22.23;;;14.70;99.90;;;;;;4179836;28;20033;-76
2021/06/09 00:51:43;;;;;;;24.23;21.83;;;14.70;99.90;;;;;;4179461;28;20376;-77
2021/06/09 00:53:53;;;;;;;23.13;20.50;;;14.70;99.90;;;;;;4180790;28;20393;-77
2021/06/09 00:55:59;;;;;;;24.95;22.25;;;14.60;99.90;;;;;;4165299;28;20029;-75
2021/06/09 00:58:00;;;;;;;25.92;20.77;;;14.60;99.90;;;;;;4202853;28;20028;-76
2021/06/09 01:00:00;;;;;;;25.08;20.98;;;14.50;99.90;;;;;;4178778;28;20642;-76
2021/06/09 01:02:01;;;;;;;24.58;21.90;;;14.50;99.90;;;;;;4180372;28;20033;-76
2021/06/09 01:04:04;;;;;;;26.17;21.95;;;14.50;99.90;;;;;;4166463;28;20036;-77
2021/06/09 01:06:06;;;;;;;26.83;22.58;;;14.50;99.90;;;;;;4179463;28;20125;-76
2021/06/09 01:08:08;;;;;;;25.45;21.95;;;14.50;99.90;;;;;;4180847;28;20171;-76
2021/06/09 01:10:09;;;;;;;25.00;22.13;;;14.50;99.90;;;;;;4180276;28;20464;-76
2021/06/09 01:12:11;;;;;;;23.58;21.02;;;14.50;99.90;;;;;;4180752;28;20029;-77
2021/06/09 01:14:13;;;;;;;21.90;19.40;;;14.50;99.90;;;;;;4179162;28;20504;-77
2021/06/09 01:16:14;;;;;;;26.20;23.23;;;14.50;99.90;;;;;;4180154;28;20040;-76
2021/06/09 01:18:16;;;;;;;28.08;22.45;;;14.40;99.90;;;;;;4179280;28;20064;-76
2021/06/09 01:20:17;;;;;;;25.17;22.30;;;14.40;99.90;;;;;;4180443;28;20044;-76
2021/06/09 01:22:18;;;;;;;23.33;20.88;;;14.40;99.90;;;;;;4180237;28;20028;-75
2021/06/09 01:24:19;;;;;;;24.15;21.55;;;14.30;99.90;;;;;;4180443;28;20029;-75
2021/06/09 01:26:19;;;;;;;25.83;23.13;;;14.40;99.90;;;;;;4179218;28;20044;-75
2021/06/09 01:28:20;;;;;;;29.77;22.60;;;14.30;99.90;;;;;;4180417;28;20031;-75
2021/06/09 01:30:23;;;;;;;27.23;23.05;;;14.30;99.90;;;;;;4180230;28;20048;-76
2021/06/09 01:32:24;;;;;;;27.10;22.20;;;14.20;99.90;;;;;;4180302;28;20534;-76
2021/06/09 01:34:25;;;;;;;24.15;20.55;;;14.20;99.90;;;;;;4179115;28;20029;-76
2021/06/09 01:36:26;;;;;;;28.70;22.95;;;14.20;99.90;;;;;;4179230;28;20033;-77
2021/06/09 01:38:27;;;;;;;26.42;21.48;;;14.20;99.90;;;;;;4180044;28;20392;-77
2021/06/09 01:40:29;;;;;;;27.67;22.80;;;14.10;99.90;;;;;;4180271;28;20041;-77
2021/06/09 01:42:31;;;;;;;25.85;22.08;;;14.10;99.90;;;;;;4178829;28;20029;-77
2021/06/09 01:44:32;;;;;;;28.23;23.45;;;14.10;99.90;;;;;;4179375;28;20354;-76
2021/06/09 01:46:33;;;;;;;28.23;22.65;;;14.00;99.90;;;;;;4178877;28;20067;-76
2021/06/09 01:48:33;;;;;;;26.95;21.63;;;14.00;99.90;;;;;;4178843;28;20036;-77
2021/06/09 01:50:40;;;;;;;26.40;23.48;;;14.00;99.90;;;;;;4178289;28;20103;-76
2021/06/09 01:52:41;;;;;;;28.45;23.98;;;14.00;99.90;;;;;;4178206;28;20488;-76
2021/06/09 01:54:42;;;;;;;24.83;22.23;;;14.00;99.90;;;;;;4178628;28;20029;-76
2021/06/09 01:56:43;;;;;;;27.88;24.65;;;14.00;99.90;;;;;;4180000;28;20044;-77
2021/06/09 01:58:44;;;;;;;28.83;23.30;;;13.90;99.90;;;;;;4179950;28;20482;-76
2021/06/09 02:00:47;;;;;;;27.10;23.25;;;13.90;99.90;;;;;;4179761;28;20056;-77
2021/06/09 02:02:47;;;;;;;28.88;23.17;;;13.90;99.90;;;;;;4179450;28;20025;-77
2021/06/09 02:04:48;;;;;;;28.02;23.85;;;13.90;99.90;;;;;;4172650;28;20067;-76
2021/06/09 02:06:48;;;;;;;31.20;25.05;;;13.90;99.90;;;;;;4178195;28;20074;-76
2021/06/09 02:08:50;;;;;;;34.22;23.63;;;13.90;99.90;;;;;;4178252;28;20033;-76
2021/06/09 02:10:51;;;;;;;30.95;23.58;;;13.90;99.90;;;;;;4179678;28;20029;-76
2021/06/09 02:12:56;;;;;;;30.88;26.00;;;13.80;99.90;;;;;;4177746;28;20026;-76
2021/06/09 02:14:57;;;;;;;27.42;24.23;;;13.80;99.90;;;;;;4179675;28;20029;-76
2021/06/09 02:16:58;;;;;;;26.30;22.27;;;13.80;99.90;;;;;;4178285;28;20068;-76
2021/06/09 02:18:59;;;;;;;31.85;27.25;;;13.80;99.90;;;;;;4179660;28;20027;-76
2021/06/09 02:21:00;;;;;;;29.40;26.30;;;13.80;99.90;;;;;;4178510;28;20484;-76
2021/06/09 02:23:01;;;;;;;34.65;27.33;;;13.80;99.90;;;;;;4178902;28;20029;-76
2021/06/09 02:25:05;;;;;;;32.58;27.10;;;13.80;99.90;;;;;;4179414;28;20036;-77
2021/06/09 02:27:06;;;;;;;29.70;26.38;;;13.80;99.90;;;;;;4193652;28;20029;-76
2021/06/09 02:29:09;;;;;;;36.90;28.27;;;13.80;99.90;;;;;;4181665;28;20017;-76
2021/06/09 02:31:11;;;;;;;35.20;27.95;;;13.80;99.90;;;;;;4179193;28;20036;-76
2021/06/09 02:33:14;;;;;;;29.13;25.15;;;13.80;99.90;;;;;;4178419;28;20143;-76
2021/06/09 02:35:18;;;;;;;32.85;29.25;;;13.70;99.90;;;;;;4194826;28;20029;-76
2021/06/09 02:37:21;;;;;;;32.58;28.73;;;13.70;99.90;;;;;;4179277;28;20388;-76
2021/06/09 02:39:23;;;;;;;;;;;13.70;99.90;;;;;;4194406;28;20090;-76
2021/06/09 02:41:24;;;;;;;38.75;29.83;;;13.70;99.90;;;;;;4179539;28;19909;-76
2021/06/09 02:43:31;;;;;;;36.60;29.77;;;13.60;99.90;;;;;;4179775;28;20560;-76
2021/06/09 02:45:32;;;;;;;38.63;29.15;;;13.60;99.90;;;;;;4179305;28;20026;-76
2021/06/09 02:47:35;;;;;;;34.13;26.27;;;13.60;99.90;;;;;;4179253;28;20384;-76
2021/06/09 02:49:40;;;;;;;31.67;28.27;;;13.60;99.90;;;;;;4194582;28;20028;-76
2021/06/09 02:51:45;;;;;;;39.75;30.55;;;13.60;99.90;;;;;;4194205;28;20122;-76
2021/06/09 02:54:02;;;;;;;36.85;29.67;;;13.50;99.90;;;;;;4178431;28;20033;-75
2021/06/09 02:56:22;;;;;;;34.83;29.98;;;13.50;99.90;;;;;;4179139;28;20489;-76
2021/06/09 02:58:44;;;;;;;37.65;30.35;;;13.50;99.90;;;;;;4182538;28;20473;-76
2021/06/09 03:01:10;;;;;;;37.85;29.85;;;13.60;99.90;;;;;;4182832;28;20025;-75
2021/06/09 03:03:18;;;;;;;37.92;30.35;;;13.50;99.90;;;;;;4169746;28;20064;-75
2021/06/09 03:05:31;;;;;;;37.45;31.17;;;13.50;99.90;;;;;;4197833;28;20450;-76
2021/06/09 03:07:48;;;;;;;33.28;27.63;;;13.50;99.90;;;;;;4182370;28;20112;-76
2021/06/09 03:10:02;;;;;;;37.08;30.48;;;13.50;99.90;;;;;;4197494;28;20033;-76
2021/06/09 03:12:34;;;;;;;44.10;33.13;;;13.40;99.90;;;;;;4197230;28;20075;-77
2021/06/09 03:17:11;;;;;;;34.40;29.70;;;13.40;99.90;;;;;;4169766;28;20036;-77
2021/06/09 03:19:18;;;;;;;35.60;30.35;;;13.40;99.90;;;;;;4189053;28;20392;-77
2021/06/09 03:21:23;;;;;;;34.00;28.38;;;13.40;99.90;;;;;;4182306;28;20021;-77
2021/06/09 03:23:24;;;;;;;38.88;29.38;;;13.40;99.90;;;;;;4180686;28;20032;-75
2021/06/09 03:25:33;;;;;;;41.13;32.58;;;13.40;99.90;;;;;;4197529;28;20395;-76
2021/06/09 03:27:44;;;;;;;39.88;32.28;;;13.40;99.90;;;;;;4197297;28;20389;-76
2021/06/09 03:30:07;;;;;;;43.83;34.78;;;13.40;99.90;;;;;;4182072;28;20069;-76
2021/06/09 03:32:31;;;;;;;44.63;33.85;;;13.40;99.90;;;;;;4181674;28;20033;-75
2021/06/09 03:34:45;;;;;;;42.85;33.03;;;13.40;99.90;;;;;;4182161;28;20029;-76
2021/06/09 03:36:48;;;;;;;38.70;32.97;;;13.50;99.90;;;;;;4182219;28;20037;-77
2021/06/09 03:38:58;;;;;;;40.35;33.67;;;13.60;99.90;;;;;;4196813;28;20053;-75
2021/06/09 03:41:06;;;;;;;40.65;31.02;;;13.60;99.90;;;;;;4180546;28;20033;-76
2021/06/09 03:43:11;;;;;;;37.60;30.55;;;13.60;99.90;;;;;;4181591;28;20036;-77
2021/06/09 03:45:13;;;;;;;36.67;29.60;;;13.60;99.90;;;;;;4182145;28;20029;-76
2021/06/09 03:47:16;;;;;;;44.00;32.30;;;13.50;99.90;;;;;;4182180;28;20036;-76
2021/06/09 03:49:18;;;;;;;40.45;31.75;;;13.60;99.90;;;;;;4197440;28;20283;-76
2021/06/09 03:51:24;;;;;;;43.92;31.77;;;13.60;99.90;;;;;;4181708;28;20032;-76
2021/06/09 03:53:26;;;;;;;42.67;33.05;;;13.60;99.90;;;;;;4182074;28;20036;-76
2021/06/09 03:55:27;;;;;;;39.25;32.33;;;13.60;99.90;;;;;;4180383;28;20032;-76
2021/06/09 03:57:32;;;;;;;46.38;32.13;;;13.60;99.90;;;;;;4181792;28;20036;-76
2021/06/09 03:59:33;;;;;;;44.47;35.70;;;13.70;99.90;;;;;;4197751;28;20056;-76
2021/06/09 04:01:39;;;;;;;43.25;34.55;;;13.60;99.90;;;;;;4180780;28;20423;-76
2021/06/09 04:03:41;;;;;;;46.03;35.30;;;13.70;99.90;;;;;;4196975;28;20064;-76
2021/06/09 04:05:43;;;;;;;35.00;30.02;;;13.80;99.90;;;;;;4196976;28;20126;-76
2021/06/09 04:07:45;;;;;;;35.05;30.98;;;13.80;99.90;;;;;;4179469;28;20056;-76
2021/06/09 04:09:46;;;;;;;42.28;34.42;;;13.90;99.90;;;;;;4196784;28;20582;-77
2021/06/09 04:11:54;;;;;;;42.55;35.10;;;13.90;99.90;;;;;;4180976;28;20037;-77
2021/06/09 04:13:57;;;;;;;36.90;31.40;;;14.00;99.90;;;;;;4174373;28;20091;-77
2021/06/09 04:16:01;;;;;;;45.78;34.33;;;14.10;99.90;;;;;;4181542;28;20035;-76
2021/06/09 04:18:04;;;;;;;40.03;33.92;;;14.20;99.90;;;;;;4179964;28;20116;-77
2021/06/09 04:20:07;;;;;;;39.67;34.35;;;14.30;99.90;;;;;;4213152;28;20028;-76
2021/06/09 04:22:08;;;;;;;41.63;33.92;;;14.40;99.90;;;;;;4196591;28;20113;-76
2021/06/09 04:24:10;;;;;;;35.63;31.00;;;14.40;99.90;;;;;;4180048;28;20021;-76
2021/06/09 04:26:14;;;;;;;41.88;33.95;;;14.50;99.90;;;;;;4181677;28;20488;-76
2021/06/09 04:28:19;;;;;;;38.63;34.15;;;14.60;99.90;;;;;;4181577;28;20029;-76
2021/06/09 04:30:22;;;;;;;38.72;33.58;;;14.60;99.90;;;;;;4181072;28;20033;-76
2021/06/09 04:32:25;;;;;;;34.75;30.95;;;14.70;99.90;;;;;;4180975;28;20032;-76
2021/06/09 04:34:25;;;;;;;32.90;29.50;;;14.80;99.90;;;;;;4181323;28;20784;-77
2021/06/09 04:36:26;;;;;;;35.35;31.63;;;14.90;99.90;;;;;;4181475;28;20061;-76
2021/06/09 04:38:27;;;;;;;39.60;31.40;;;15.00;99.90;;;;;;4181030;28;20059;-76
2021/06/09 04:40:28;;;;;;;36.70;32.78;;;15.10;99.90;;;;;;4180511;28;20032;-76
2021/06/09 04:42:29;;;;;;;30.98;27.73;;;15.20;99.90;;;;;;4179687;28;20060;-76
2021/06/09 04:44:30;;;;;;;33.53;29.90;;;15.40;99.90;;;;;;4179757;28;20078;-76
2021/06/09 04:46:31;;;;;;;31.80;28.45;;;15.50;99.90;;;;;;4179586;28;20037;-76
2021/06/09 04:48:32;;;;;;;34.33;30.63;;;15.60;99.90;;;;;;4179178;28;20035;-76
2021/06/09 04:50:33;;;;;;;33.95;29.83;;;15.70;99.90;;;;;;4180788;28;20079;-76
2021/06/09 04:52:34;;;;;;;29.48;26.50;;;15.90;99.90;;;;;;4179573;28;20033;-76
2021/06/09 04:54:35;;;;;;;29.08;26.05;;;16.00;99.90;;;;;;4194837;28;21056;-76
2021/06/09 04:56:38;;;;;;;28.90;26.00;;;16.10;99.90;;;;;;4179174;28;20515;-76
2021/06/09 04:58:39;;;;;;;28.60;25.58;;;16.30;99.90;;;;;;4196169;28;20367;-76
2021/06/09 05:00:41;;;;;;;30.77;27.67;;;16.40;99.90;;;;;;4179681;28;20044;-76
2021/06/09 05:02:42;;;;;;;28.08;25.20;;;16.50;99.90;;;;;;4180855;28;20052;-76
2021/06/09 05:04:42;;;;;;;31.75;27.15;;;16.70;99.90;;;;;;4180831;28;20052;-76
2021/06/09 05:06:44;;;;;;;29.88;26.88;;;16.80;99.90;;;;;;4179406;28;20071;-75
2021/06/09 05:08:46;;;;;;;30.35;27.13;;;16.90;99.90;;;;;;4180570;28;20068;-76
2021/06/09 05:10:47;;;;;;;31.10;26.77;;;17.00;99.90;;;;;;4182403;28;20125;-76
2021/06/09 05:12:52;;;;;;;30.95;27.30;;;17.20;99.90;;;;;;4181203;28;20033;-76
2021/06/09 05:15:09;;;;;;;31.38;28.10;;;17.30;99.90;;;;;;4179547;28;20496;-76
2021/06/09 05:17:12;;;;;;;28.92;25.83;;;17.40;99.90;;;;;;4179885;28;20112;-75
2021/06/09 05:19:17;;;;;;;29.08;26.08;;;17.40;99.90;;;;;;4173563;28;20496;-76
2021/06/09 05:21:21;;;;;;;27.90;25.00;;;17.50;99.90;;;;;;4180819;28;20033;-76
2021/06/09 05:23:26;;;;;;;30.00;26.77;;;17.60;99.90;;;;;;4180010;28;20078;-77
2021/06/09 05:25:28;;;;;;;30.35;26.90;;;17.70;99.90;;;;;;4193112;28;20025;-76
2021/06/09 05:27:30;;;;;;;27.75;24.75;;;17.80;99.90;;;;;;4179227;28;20039;-76
2021/06/09 05:29:33;;;;;;;30.50;25.25;;;17.90;99.90;;;;;;4179695;28;20037;-75
2021/06/09 05:31:35;;;;;;;;;;;18.00;99.90;;;;;;4184490;28;20474;-77
2021/06/09 05:33:36;;;;;;;31.92;25.95;;;18.10;99.90;;;;;;4181237;28;19948;-76
2021/06/09 05:35:37;;;;;;;41.38;35.72;;;18.20;99.90;;;;;;4211870;28;20024;-75
2021/06/09 05:37:40;;;;;;;49.00;40.85;;;18.40;99.90;;;;;;4179196;28;20043;-75
2021/06/09 05:39:44;;;;;;;34.85;30.80;;;18.50;99.90;;;;;;4212527;28;20067;-75
2021/06/09 05:41:45;;;;;;;37.60;33.53;;;18.50;99.90;;;;;;4178735;28;20084;-75
2021/06/09 05:43:47;;;;;;;32.15;28.73;;;18.70;99.90;;;;;;4179211;28;20084;-77
2021/06/09 05:45:49;;;;;;;34.38;30.73;;;18.70;99.90;;;;;;4179362;28;20468;-76
2021/06/09 05:47:51;;;;;;;33.85;28.58;;;18.80;99.90;;;;;;4179303;28;20488;-76
2021/06/09 05:50:22;;;;;;;34.97;30.13;;;18.90;99.90;;;;;;4190749;28;20045;-75
2021/06/09 05:52:27;;;;;;;32.95;29.45;;;18.90;99.90;;;;;;4171156;28;20076;-75
2021/06/09 05:54:39;;;;;;;35.00;31.23;;;19.00;99.90;;;;;;4177047;28;20491;-75
2021/06/09 05:56:40;;;;;;;34.50;29.60;;;19.00;99.90;;;;;;4180742;28;21482;-75
2021/06/09 05:58:43;;;;;;;32.70;29.15;;;19.10;99.90;;;;;;4177475;28;20037;-76
2021/06/09 06:00:48;;;;;;;31.13;27.88;;;19.20;99.90;;;;;;4180178;28;20029;-75
2021/06/09 06:02:50;;;;;;;34.90;29.20;;;19.30;99.90;;;;;;4179657;28;20067;-75
2021/06/09 06:04:51;;;;;;;37.72;31.23;;;19.20;99.90;;;;;;4179174;28;20040;-75
2021/06/09 06:06:53;;;;;;;33.05;29.63;;;19.20;99.90;;;;;;4183402;28;20410;-75
2021/06/09 06:08:54;;;;;;;37.13;33.13;;;19.20;99.90;;;;;;4177674;28;20812;-75
2021/06/09 06:10:55;;;;;;;61.63;33.85;;;19.20;99.90;;;;;;4176673;28;20032;-76
2021/06/09 06:12:57;;;;;;;43.15;38.45;;;19.20;99.90;;;;;;4177201;28;20079;-75
2021/06/09 06:14:59;;;;;;;33.87;29.90;;;19.20;99.90;;;;;;4178416;28;20472;-76
2021/06/09 06:17:01;;;;;;;33.63;29.35;;;19.40;99.90;;;;;;4194040;28;20713;-75
2021/06/09 06:19:02;;;;;;;33.55;29.23;;;19.50;99.90;;;;;;4178675;28;20128;-75
2021/06/09 06:21:04;;;;;;;35.42;29.58;;;19.60;99.90;;;;;;4178680;28;20539;-75
2021/06/09 06:23:05;;;;;;;37.13;32.58;;;19.80;99.90;;;;;;4181343;28;20587;-75
2021/06/09 06:25:06;;;;;;;33.80;30.13;;;19.90;99.90;;;;;;4179515;28;20044;-75
2021/06/09 06:27:08;;;;;;;38.28;32.60;;;20.10;99.90;;;;;;4179707;28;20036;-75
2021/06/09 06:29:10;;;;;;;33.75;30.45;;;20.40;99.90;;;;;;4179383;28;20025;-75
2021/06/09 06:31:14;;;;;;;36.15;31.13;;;20.60;99.90;;;;;;4177919;28;20045;-75
2021/06/09 06:33:15;;;;;;;35.45;31.83;;;20.80;99.90;;;;;;4180503;28;20610;-75
2021/06/09 06:35:22;;;;;;;36.10;32.40;;;21.00;99.90;;;;;;4195190;28;20024;-75
2021/06/09 06:37:25;;;;;;;36.08;32.22;;;21.10;99.90;;;;;;4194955;28;20031;-75
2021/06/09 06:39:26;;;;;;;34.72;30.95;;;21.30;99.90;;;;;;4179466;28;20068;-76
2021/06/09 06:41:29;;;;;;;36.35;31.05;;;21.40;99.90;;;;;;4177480;28;20067;-75
2021/06/09 06:43:30;;;;;;;34.40;30.88;;;21.60;99.90;;;;;;4195155;28;20028;-75
2021/06/09 06:45:30;;;;;;;31.80;28.50;;;21.70;99.90;;;;;;4179029;28;20100;-75
2021/06/09 06:47:31;;;;;;;34.72;31.33;;;21.70;99.90;;;;;;4179032;28;20025;-75
2021/06/09 06:49:33;;;;;;;33.50;30.02;;;21.80;99.90;;;;;;4179279;28;20051;-75
2021/06/09 06:51:34;;;;;;;38.08;31.90;;;21.80;99.90;;;;;;4179347;28;20119;-74
2021/06/09 06:53:39;;;;;;;34.90;31.08;;;21.80;99.90;;;;;;4179504;28;20041;-75
2021/06/09 06:55:39;;;;;;;32.88;29.52;;;21.90;99.90;;;;;;4177714;28;20091;-74
2021/06/09 06:57:43;;;;;;;32.85;29.65;;;21.90;99.90;;;;;;4179100;28;20029;-74
2021/06/09 06:59:46;;;;;;;30.88;27.95;;;21.90;99.90;;;;;;4177774;28;20033;-75
2021/06/09 07:01:47;;;;;;;30.65;27.63;;;21.90;99.90;;;;;;4194546;28;20025;-76
2021/06/09 07:03:49;;;;;;;30.17;27.10;;;22.00;99.90;;;;;;4179589;28;20036;-75
2021/06/09 07:05:50;;;;;;;30.58;27.45;;;22.10;99.90;;;;;;4178900;28;20462;-74
2021/06/09 07:07:52;;;;;;;29.77;26.52;;;22.00;99.90;;;;;;4177925;28;20087;-75
2021/06/09 07:09:53;;;;;;;29.05;26.33;;;22.00;99.90;;;;;;4179303;28;20041;-75
2021/06/09 07:11:54;;;;;;;34.60;29.92;;;22.10;99.90;;;;;;4179253;28;20057;-75
2021/06/09 07:13:57;;;;;;;31.08;27.98;;;22.10;99.90;;;;;;4179056;28;20025;-75
2021/06/09 07:16:01;;;;;;;29.75;26.85;;;22.10;99.90;;;;;;4194181;28;20043;-75
2021/06/09 07:18:02;;;;;;;30.88;27.95;;;22.30;99.90;;;;;;4178769;28;20545;-75
2021/06/09 07:20:13;;;;;;;32.28;29.02;;;22.50;99.90;;;;;;4194492;28;20032;-74
2021/06/09 07:22:15;;;;;;;31.50;28.40;;;22.50;99.90;;;;;;4178902;28;20033;-75
2021/06/09 07:24:16;;;;;;;30.38;27.35;;;22.70;99.90;;;;;;4179657;28;20427;-75
2021/06/09 07:26:18;;;;;;;29.20;26.35;;;22.80;99.90;;;;;;4177687;28;20061;-76
2021/06/09 07:28:20;;;;;;;29.98;27.17;;;22.80;99.90;;;;;;4211489;28;20494;-75
2021/06/09 07:30:27;;;;;;;31.08;27.88;;;22.90;99.90;;;;;;4178906;28;20469;-76
2021/06/09 07:32:29;;;;;;;31.88;28.65;;;22.90;99.90;;;;;;4179281;28;20029;-76
2021/06/09 07:34:30;;;;;;;30.42;27.42;;;22.90;99.90;;;;;;4194217;28;20078;-76
2021/06/09 07:36:35;;;;;;;31.35;28.15;;;22.90;99.90;;;;;;4178807;28;20025;-76
2021/06/09 07:38:43;;;;;;;32.05;28.77;;;23.00;99.90;;;;;;4193784;28;20402;-75
2021/06/09 07:40:49;;;;;;;30.92;27.80;;;23.20;99.90;;;;;;4194294;28;20132;-76
2021/06/09 07:42:54;;;;;;;29.42;26.20;;;23.40;99.90;;;;;;4195042;28;20044;-75
2021/06/09 07:45:09;;;;;;;30.63;27.63;;;23.70;99.90;;;;;;4182153;28;20025;-75
2021/06/09 07:47:12;;;;;;;28.83;26.02;;;23.90;99.90;;;;;;4181520;28;20029;-75
2021/06/09 07:49:13;;;;;;;;;;;24.20;99.90;;;;;;4182434;28;20045;-76
2021/06/09 07:51:15;;;;;;;27.10;24.23;;;24.40;99.90;;;;;;4181992;28;19908;-76
2021/06/09 07:53:17;;;;;;;28.48;25.52;;;24.50;99.90;;;;;;4182233;28;20514;-74
2021/06/09 07:55:18;;;;;;;28.80;26.17;;;24.60;99.90;;;;;;4196106;28;20047;-75
2021/06/09 07:57:21;;;;;;;30.33;27.35;;;24.60;99.90;;;;;;4181872;28;20814;-75
2021/06/09 07:59:22;;;;;;;28.70;25.95;;;24.50;99.90;;;;;;4181742;28;20281;-75
2021/06/09 08:01:23;;;;;;;26.85;24.23;;;24.70;99.90;;;;;;4182025;28;20118;-76
2021/06/09 08:03:29;;;;;;;25.50;22.85;;;24.90;99.90;;;;;;4180892;28;20071;-75
2021/06/09 08:05:29;;;;;;;24.77;22.27;;;24.90;99.90;;;;;;4196620;28;20028;-75
2021/06/09 08:07:30;;;;;;;27.50;24.70;;;25.00;99.90;;;;;;4181842;28;20125;-75
2021/06/09 08:09:31;;;;;;;26.58;23.30;;;25.20;99.90;;;;;;4181672;28;20485;-75
2021/06/09 08:11:32;;;;;;;24.42;22.25;;;25.50;99.90;;;;;;4181719;28;20139;-75
2021/06/09 08:13:33;;;;;;;25.58;22.92;;;25.90;99.90;;;;;;4181095;28;20047;-75
2021/06/09 08:15:34;;;;;;;27.00;24.08;;;26.30;99.90;;;;;;4189359;28;20033;-76
2021/06/09 08:17:38;;;;;;;27.15;24.33;;;26.40;99.90;;;;;;4180114;28;20052;-76
2021/06/09 08:19:39;;;;;;;27.00;24.55;;;26.40;99.90;;;;;;4180285;28;20051;-75
2021/06/09 08:21:40;;;;;;;25.75;23.02;;;26.40;99.90;;;;;;4181199;28;20064;-76
2021/06/09 08:23:48;;;;;;;24.65;22.25;;;26.30;99.90;;;;;;4181398;28;20480;-75
2021/06/09 08:25:48;;;;;;;22.88;20.80;;;26.20;99.90;;;;;;4196620;28;20082;-76
2021/06/09 08:27:50;;;;;;;24.00;21.70;;;26.10;99.90;;;;;;4181298;28;20060;-76
2021/06/09 08:29:51;;;;;;;22.38;20.33;;;26.20;99.90;;;;;;4179658;28;20124;-75
2021/06/09 08:31:52;;;;;;;22.88;20.75;;;26.20;99.90;;;;;;4179689;28;20083;-76
2021/06/09 08:33:54;;;;;;;24.70;22.27;;;26.00;99.90;;;;;;4180154;28;20371;-76
2021/06/09 08:35:55;;;;;;;23.55;21.17;;;25.90;99.90;;;;;;4181651;28;20021;-75
2021/06/09 08:37:55;;;;;;;23.67;21.27;;;26.10;99.90;;;;;;4181368;28;20067;-76
2021/06/09 08:39:56;;;;;;;24.90;22.10;;;26.00;99.90;;;;;;4180639;28;20460;-76
2021/06/09 08:42:02;;;;;;;24.40;22.25;;;25.70;99.90;;;;;;4182539;28;20040;-76
2021/06/09 08:44:04;;;;;;;24.05;21.65;;;25.70;99.90;;;;;;4212876;28;20043;-76
2021/06/09 08:46:07;;;;;;;21.23;18.97;;;25.70;99.90;;;;;;4181501;28;20675;-76
2021/06/09 08:48:08;;;;;;;;;;;25.60;99.90;;;;;;4196498;28;20028;-76
2021/06/09 08:50:12;;;;;;;29.33;26.50;;;25.30;99.90;;;;;;4181350;28;19916;-76
2021/06/09 08:52:14;;;;;;;27.17;24.58;;;25.20;99.90;;;;;;4196033;28;20020;-75
2021/06/09 08:54:15;;;;;;;28.98;26.17;;;25.20;99.90;;;;;;4180620;28;20029;-77
2021/06/09 08:56:17;;;;;;;25.40;22.90;;;25.30;99.90;;;;;;4196285;28;20024;-75
2021/06/09 08:58:18;;;;;;;21.10;19.00;;;25.50;99.90;;;;;;4196277;28;20020;-76
2021/06/09 09:00:19;;;;;;;21.58;19.35;;;25.70;99.90;;;;;;4179691;28;20675;-76
2021/06/09 09:02:20;;;;;;;26.25;22.05;;;26.00;99.90;;;;;;4180860;28;20033;-76
2021/06/09 09:04:21;;;;;;;22.58;20.38;;;26.20;99.90;;;;;;4180937;28;20029;-76
2021/06/09 09:06:24;;;;;;;27.42;24.73;;;26.20;99.90;;;;;;4180685;28;20041;-75
2021/06/09 09:08:24;;;;;;;24.48;22.20;;;26.30;99.90;;;;;;4181535;28;20032;-77
2021/06/09 09:10:26;;;;;;;27.67;25.08;;;26.30;99.90;;;;;;4167775;28;21008;-75
2021/06/09 09:12:26;;;;;;;28.25;25.50;;;26.50;99.90;;;;;;4180836;28;20041;-75
2021/06/09 09:14:27;;;;;;;24.60;22.05;;;26.60;99.90;;;;;;4180964;28;20032;-76
2021/06/09 09:16:28;;;;;;;21.83;19.80;;;26.70;99.90;;;;;;4195907;28;20418;-76
2021/06/09 09:18:40;;;;;;;23.52;21.20;;;26.90;99.90;;;;;;4180537;28;20036;-75
2021/06/09 09:20:47;;;;;;;25.35;22.92;;;27.00;99.90;;;;;;4195934;28;20116;-76
2021/06/09 09:22:50;;;;;;;24.05;21.80;;;27.10;99.90;;;;;;4180638;28;20033;-76
2021/06/09 09:24:52;;;;;;;24.83;22.42;;;27.20;99.90;;;;;;4196204;28;20405;-75
2021/06/09 09:27:01;;;;;;;22.27;20.17;;;27.60;99.90;;;;;;4181146;28;20083;-76
2021/06/09 09:29:22;;;;;;;22.17;19.88;;;27.70;99.90;;;;;;4179891;28;20033;-77
2021/06/09 09:31:23;;;;;;;22.13;20.13;;;27.80;99.90;;;;;;4180491;28;20037;-76
2021/06/09 09:33:30;;;;;;;19.92;17.73;;;27.50;99.90;;;;;;4178889;28;20475;-76
2021/06/09 09:35:34;;;;;;;18.85;17.08;;;27.40;99.90;;;;;;4148855;28;20556;-77
2021/06/09 09:37:35;;;;;;;18.13;16.45;;;27.50;99.90;;;;;;4194928;28;20040;-77
2021/06/09 09:39:39;;;;;;;18.80;16.63;;;27.70;99.90;;;;;;4179984;28;20128;-77
2021/06/09 09:41:40;;;;;;;20.13;18.23;;;27.80;99.90;;;;;;4180481;28;20048;-76
2021/06/09 09:43:45;;;;;;;16.65;15.10;;;28.10;99.90;;;;;;4179316;28;20037;-76
2021/06/09 09:45:46;;;;;;;19.42;17.73;;;27.80;99.90;;;;;;4166683;28;20522;-76
2021/06/09 09:48:03;;;;;;;18.20;16.40;;;27.00;99.90;;;;;;4180652;28;20026;-76
2021/06/09 09:50:05;;;;;;;18.42;16.63;;;26.50;99.90;;;;;;4178650;28;20503;-76
2021/06/09 09:52:06;;;;;;;15.75;14.27;;;26.70;99.90;;;;;;4179737;28;20052;-76
2021/06/09 09:54:07;;;;;;;17.77;16.00;;;27.00;99.90;;;;;;4186499;28;20456;-77
2021/06/09 09:56:16;;;;;;;18.80;16.80;;;27.40;99.90;;;;;;4179677;28;20325;-77
2021/06/09 09:58:18;;;;;;;16.52;14.85;;;27.70;99.90;;;;;;4177153;28;20451;-75
2021/06/09 10:00:34;;;;;;;16.58;14.10;;;28.00;99.90;;;;;;4179346;28;20100;-75
2021/06/09 10:02:35;;;;;;;12.98;11.40;;;28.10;99.90;;;;;;4179202;28;20037;-76
2021/06/09 10:04:37;;;;;;;17.77;15.90;;;28.50;99.90;;;;;;4177953;28;20055;-77
2021/06/09 10:06:46;;;;;;;13.45;12.05;;;28.70;99.90;;;;;;4179499;28;20116;-77
2021/06/09 10:08:49;;;;;;;13.30;11.90;;;28.80;99.90;;;;;;4179659;28;20486;-78
2021/06/09 10:10:50;;;;;;;14.27;12.98;;;28.90;99.90;;;;;;4187792;28;20036;-77
2021/06/09 10:13:11;;;;;;;15.18;13.55;;;29.20;99.90;;;;;;4171543;28;20051;-77
2021/06/09 10:15:32;;;;;;;13.27;11.60;;;29.50;99.90;;;;;;4163394;28;20366;-77
2021/06/09 10:17:34;;;;;;;11.30;9.93;;;30.00;99.90;;;;;;4190552;28;20083;-78
2021/06/09 10:19:36;;;;;;;12.23;10.90;;;30.20;99.90;;;;;;4179837;28;20112;-76
2021/06/09 10:21:54;;;;;;;;;;;30.30;99.90;;;;;;4180105;28;20037;-76
2021/06/09 10:24:05;;;;;;;15.40;13.85;;;30.10;99.90;;;;;;4177943;28;19921;-75
2021/06/09 10:26:12;;;;;;;15.15;13.68;;;29.80;99.90;;;;;;4178982;28;20021;-77
2021/06/09 10:28:12;;;;;;;14.88;13.38;;;29.90;99.90;;;;;;4178005;28;20029;-76
2021/06/09 10:30:26;;;;;;;13.50;11.95;;;30.20;99.90;;;;;;4171502;28;20104;-77